createdAt,value
2023-01-09T00:01:58.760Z,22.45
2023-01-09T00:04:29.359Z,22.50
2023-01-09T00:07:00.651Z,22.44
2023-01-09T00:09:31.624Z,22.43
2023-01-09T00:12:05.436Z,22.49
2023-01-09T00:14:35.873Z,22.30
2023-01-09T00:17:07.327Z,22.36
2023-01-09T00:19:37.982Z,22.37
2023-01-09T00:22:11.370Z,22.37
2023-01-09T00:24:41.823Z,22.37
2023-01-09T00:27:12.817Z,22.34
2023-01-09T00:29:45.941Z,22.27
2023-01-09T00:32:17.609Z,22.33
2023-01-09T00:34:48.990Z,22.18
2023-01-09T00:37:19.945Z,22.10
2023-01-09T00:39:50.225Z,21.98
2023-01-09T00:42:24.435Z,21.88
2023-01-09T00:45:01.284Z,21.81
2023-01-09T00:47:37.075Z,21.73
2023-01-09T00:50:12.458Z,21.73
2023-01-09T00:52:45.000Z,21.76
2023-01-09T00:55:16.548Z,21.82
2023-01-09T00:57:48.444Z,21.74
2023-01-09T01:00:20.572Z,21.63
2023-01-09T01:02:51.749Z,21.60
2023-01-09T01:05:40.417Z,21.57
2023-01-09T01:08:19.882Z,21.60
2023-01-09T01:10:51.067Z,21.52
2023-01-09T01:13:24.853Z,21.53
2023-01-09T01:15:55.286Z,21.54
2023-01-09T01:18:26.488Z,21.52
2023-01-09T01:20:57.200Z,21.48
2023-01-09T01:23:29.179Z,21.35
2023-01-09T01:25:59.343Z,21.49
2023-01-09T01:28:30.021Z,21.52
2023-01-09T01:31:00.432Z,21.45
2023-01-09T01:33:31.493Z,21.22
2023-01-09T01:36:10.230Z,21.36
2023-01-09T01:38:41.427Z,21.42
2023-01-09T01:41:12.114Z,21.21
2023-01-09T01:43:52.795Z,21.31
2023-01-09T01:46:23.505Z,21.30
2023-01-09T01:49:17.193Z,21.20
2023-01-09T01:51:51.756Z,21.23
2023-01-09T01:54:26.399Z,21.16
2023-01-09T01:57:02.656Z,21.16
2023-01-09T01:59:40.791Z,21.16
2023-01-09T02:02:12.434Z,21.22
2023-01-09T02:04:46.101Z,21.20
2023-01-09T02:07:16.282Z,21.18
2023-01-09T02:09:47.952Z,21.18
2023-01-09T02:12:27.569Z,21.08
2023-01-09T02:15:16.900Z,21.06
2023-01-09T02:18:02.834Z,21.02
2023-01-09T02:20:36.573Z,20.99
2023-01-09T02:23:43.582Z,20.95
2023-01-09T02:26:38.913Z,20.92
2023-01-09T02:29:33.092Z,20.93
2023-01-09T02:32:12.812Z,20.87
2023-01-09T02:34:59.677Z,20.81
2023-01-09T02:37:57.921Z,20.94
2023-01-09T02:41:11.071Z,20.72
2023-01-09T02:43:42.991Z,20.68
2023-01-09T02:46:24.244Z,20.68
2023-01-09T02:48:56.453Z,20.68
2023-01-09T02:51:49.361Z,20.75
2023-01-09T02:54:50.659Z,20.75
2023-01-09T02:57:42.436Z,20.68
2023-01-09T03:00:31.403Z,20.66
2023-01-09T03:03:13.556Z,20.61
2023-01-09T03:05:53.448Z,20.57
2023-01-09T03:08:27.000Z,20.76
2023-01-09T03:11:08.936Z,20.69
2023-01-09T03:13:48.637Z,20.51
2023-01-09T03:16:27.323Z,20.41
2023-01-09T03:19:00.706Z,20.69
2023-01-09T03:21:32.571Z,20.52
2023-01-09T03:24:03.975Z,20.56
2023-01-09T03:26:34.893Z,20.55
2023-01-09T03:29:05.022Z,20.58
2023-01-09T03:31:35.329Z,20.76
2023-01-09T03:34:05.746Z,20.75
2023-01-09T03:36:35.992Z,20.75
2023-01-09T03:39:06.672Z,20.57
2023-01-09T03:41:36.885Z,20.65
2023-01-09T03:44:07.374Z,20.61
2023-01-09T03:46:37.672Z,20.83
2023-01-09T03:49:08.062Z,20.78
2023-01-09T03:51:38.075Z,20.75
2023-01-09T03:54:11.461Z,20.71
2023-01-09T03:56:41.725Z,20.71
2023-01-09T03:59:12.089Z,20.79
2023-01-09T04:01:42.556Z,20.81
2023-01-09T04:04:13.164Z,20.74
2023-01-09T04:06:43.379Z,20.76
2023-01-09T04:09:13.787Z,20.73
2023-01-09T04:11:43.982Z,20.62
2023-01-09T04:14:14.312Z,20.52
2023-01-09T04:16:44.777Z,20.38
2023-01-09T04:19:15.191Z,20.20
2023-01-09T04:21:45.372Z,20.19
2023-01-09T04:24:15.877Z,20.03
2023-01-09T04:26:45.669Z,20.22
2023-01-09T04:29:16.022Z,20.21
2023-01-09T04:31:46.401Z,20.29
2023-01-09T04:34:16.739Z,20.29
2023-01-09T04:36:46.969Z,20.41
2023-01-09T04:39:17.356Z,20.36
2023-01-09T04:41:50.684Z,20.37
2023-01-09T04:44:23.951Z,20.31
2023-01-09T04:46:54.937Z,20.14
2023-01-09T04:49:25.592Z,20.12
2023-01-09T04:51:56.197Z,19.79
2023-01-09T04:54:26.556Z,19.86
2023-01-09T04:56:56.933Z,20.21
2023-01-09T04:59:27.292Z,20.27
2023-01-09T05:01:59.594Z,19.85
2023-01-09T05:04:33.161Z,19.85
2023-01-09T05:07:03.894Z,19.93
2023-01-09T05:09:34.253Z,20.22
2023-01-09T05:12:04.646Z,20.20
2023-01-09T05:14:35.072Z,20.19
2023-01-09T05:17:05.368Z,20.24
2023-01-09T05:19:35.779Z,20.29
2023-01-09T05:22:06.071Z,20.37
2023-01-09T05:24:36.493Z,20.51
2023-01-09T05:27:06.704Z,20.52
2023-01-09T05:29:39.995Z,20.71
2023-01-09T05:32:10.365Z,20.64
2023-01-09T05:34:40.719Z,20.33
2023-01-09T05:37:11.003Z,20.07
2023-01-09T05:39:41.410Z,19.87
2023-01-09T05:42:11.590Z,19.79
2023-01-09T05:44:42.015Z,20.01
2023-01-09T05:47:12.202Z,20.30
2023-01-09T05:49:42.815Z,20.34
2023-01-09T05:52:13.105Z,20.48
2023-01-09T05:54:43.474Z,20.52
2023-01-09T05:57:13.677Z,20.61
2023-01-09T05:59:44.083Z,20.72
2023-01-09T06:02:14.368Z,20.80
2023-01-09T06:04:47.239Z,20.85
2023-01-09T06:07:20.465Z,20.99
2023-01-09T06:09:52.486Z,21.02
2023-01-09T06:12:22.735Z,21.02
2023-01-09T06:14:53.108Z,21.16
2023-01-09T06:17:24.013Z,21.11
2023-01-09T06:19:58.551Z,21.18
2023-01-09T06:22:28.883Z,21.21
2023-01-09T06:24:59.260Z,20.67
2023-01-09T06:27:29.515Z,20.30
2023-01-09T06:29:59.928Z,20.26
2023-01-09T06:32:30.483Z,20.56
2023-01-09T06:35:00.869Z,20.21
2023-01-09T06:37:31.161Z,20.53
2023-01-09T06:40:01.548Z,20.71
2023-01-09T06:42:31.743Z,20.78
2023-01-09T06:45:02.150Z,20.40
2023-01-09T06:47:32.441Z,20.23
2023-01-09T06:50:02.783Z,20.08
2023-01-09T06:52:33.062Z,19.91
2023-01-09T06:55:03.653Z,19.76
2023-01-09T06:57:33.301Z,19.72
2023-01-09T07:00:03.930Z,19.70
2023-01-09T07:02:34.224Z,19.56
2023-01-09T07:05:05.894Z,19.45
2023-01-09T07:07:36.489Z,19.64
2023-01-09T07:10:07.400Z,19.55
2023-01-09T07:12:37.633Z,19.57
2023-01-09T07:15:08.578Z,19.90
2023-01-09T07:17:39.074Z,19.92
2023-01-09T07:20:11.605Z,19.73
2023-01-09T07:22:41.805Z,19.63
2023-01-09T07:25:12.202Z,19.74
2023-01-09T07:27:42.541Z,19.79
2023-01-09T07:30:13.533Z,19.96
2023-01-09T07:32:43.998Z,19.89
2023-01-09T07:35:14.482Z,19.82
2023-01-09T07:37:44.671Z,19.67
2023-01-09T07:40:15.621Z,19.53
2023-01-09T07:42:45.840Z,19.61
2023-01-09T07:45:16.327Z,19.45
2023-01-09T07:47:46.612Z,19.40
2023-01-09T07:50:16.981Z,19.43
2023-01-09T07:52:50.406Z,19.22
2023-01-09T07:55:20.865Z,19.28
2023-01-09T07:57:52.442Z,19.21
2023-01-09T08:00:23.259Z,19.24
2023-01-09T08:02:55.164Z,19.50
2023-01-09T08:05:25.735Z,19.63
2023-01-09T08:07:55.940Z,19.75
2023-01-09T08:10:26.365Z,19.83
2023-01-09T08:12:56.618Z,19.85
2023-01-09T08:15:26.954Z,19.93
2023-01-09T08:17:57.223Z,20.13
2023-01-09T08:20:28.628Z,20.14
2023-01-09T08:22:58.867Z,20.05
2023-01-09T08:25:29.302Z,19.62
2023-01-09T08:27:59.515Z,19.44
2023-01-09T08:30:30.926Z,19.40
2023-01-09T08:33:01.241Z,19.66
2023-01-09T08:35:31.806Z,19.55
2023-01-09T08:38:02.062Z,19.87
2023-01-09T08:40:32.511Z,19.93
2023-01-09T08:43:21.089Z,19.97
2023-01-09T08:46:11.021Z,19.80
2023-01-09T08:48:41.229Z,20.01
2023-01-09T08:51:12.568Z,20.20
2023-01-09T08:53:42.799Z,20.21
2023-01-09T08:56:13.136Z,20.15
2023-01-09T08:58:43.622Z,20.16
2023-01-09T09:01:14.050Z,20.25
2023-01-09T09:03:44.384Z,20.17
2023-01-09T09:06:14.762Z,20.25
2023-01-09T09:08:45.012Z,20.46
2023-01-09T09:11:15.438Z,20.80
2023-01-09T09:13:45.669Z,21.09
2023-01-09T09:16:16.092Z,21.54
2023-01-09T09:18:48.573Z,21.84
2023-01-09T09:21:19.601Z,22.21
2023-01-09T09:23:49.806Z,22.53
2023-01-09T09:26:20.140Z,22.82
2023-01-09T09:28:50.354Z,23.11
2023-01-09T09:31:20.823Z,23.21
2023-01-09T09:33:51.590Z,23.40
2023-01-09T09:36:21.989Z,23.64
2023-01-09T09:38:51.705Z,24.02
2023-01-09T09:42:00.225Z,24.24
2023-01-09T09:45:06.263Z,24.76
2023-01-09T09:47:46.832Z,25.08
2023-01-09T09:50:38.244Z,25.31
2023-01-09T09:53:17.376Z,25.64
2023-01-09T09:55:51.182Z,25.81
2023-01-09T09:58:30.923Z,25.91
2023-01-09T10:01:03.174Z,26.01
2023-01-09T10:03:48.870Z,26.23
2023-01-09T10:06:52.565Z,26.36
2023-01-09T10:09:50.579Z,26.03
2023-01-09T10:12:46.553Z,26.30
2023-01-09T10:15:40.866Z,26.73
2023-01-09T10:18:34.868Z,27.54
2023-01-09T10:21:35.533Z,27.98
2023-01-09T10:24:45.949Z,27.82
2023-01-09T10:27:35.403Z,27.89
2023-01-09T10:30:25.518Z,28.12
2023-01-09T10:33:17.508Z,28.46
2023-01-09T10:36:41.001Z,28.76
2023-01-09T10:39:20.526Z,28.98
2023-01-09T10:42:01.969Z,29.22
2023-01-09T10:44:39.926Z,29.28
2023-01-09T10:47:29.395Z,29.69
2023-01-09T10:50:00.470Z,30.51
2023-01-09T10:52:43.325Z,30.69
2023-01-09T10:55:40.954Z,31.39
2023-01-09T10:58:23.038Z,31.83
2023-01-09T11:00:53.258Z,32.52
2023-01-09T11:03:26.421Z,32.91
2023-01-09T11:06:01.847Z,32.56
2023-01-09T11:08:41.388Z,32.16
2023-01-09T11:11:32.635Z,31.15
2023-01-09T11:14:16.143Z,30.87
2023-01-09T11:16:56.172Z,30.57
2023-01-09T11:19:28.342Z,30.92
2023-01-09T11:22:30.098Z,31.21
2023-01-09T11:25:06.732Z,32.12
2023-01-09T11:27:36.351Z,32.63
2023-01-09T11:30:17.279Z,33.19
2023-01-09T11:32:48.654Z,32.97
2023-01-09T11:35:35.030Z,32.74
2023-01-09T11:38:09.347Z,32.58
2023-01-09T11:40:51.165Z,32.98
2023-01-09T11:43:31.567Z,33.45
2023-01-09T11:46:08.196Z,33.82
2023-01-09T11:49:03.609Z,33.82
2023-01-09T11:51:36.935Z,34.42
2023-01-09T11:54:09.767Z,34.20
2023-01-09T11:56:43.214Z,33.96
2023-01-09T11:59:21.277Z,34.27
2023-01-09T12:02:18.329Z,34.95
2023-01-09T12:05:36.509Z,35.60
2023-01-09T12:08:30.068Z,35.78
2023-01-09T12:11:09.184Z,35.88
2023-01-09T12:14:13.560Z,34.98
2023-01-09T12:17:20.450Z,35.30
2023-01-09T12:20:10.512Z,35.63
2023-01-09T12:22:52.685Z,36.08
2023-01-09T12:25:59.288Z,36.41
2023-01-09T12:28:49.013Z,36.04
2023-01-09T12:31:42.839Z,36.07
2023-01-09T12:34:45.999Z,35.44
2023-01-09T12:37:54.591Z,36.08
2023-01-09T12:40:53.339Z,36.17
2023-01-09T12:43:30.236Z,35.50
2023-01-09T12:46:17.667Z,35.40
2023-01-09T12:48:52.362Z,35.43
2023-01-09T12:51:43.661Z,35.97
2023-01-09T12:54:43.996Z,36.17
2023-01-09T12:57:30.092Z,36.72
2023-01-09T13:00:21.948Z,36.82
2023-01-09T13:03:11.376Z,36.80
2023-01-09T13:05:51.779Z,37.32
2023-01-09T13:08:58.986Z,37.87
2023-01-09T13:11:39.226Z,37.38
2023-01-09T13:14:19.485Z,37.43
2023-01-09T13:16:54.801Z,38.52
2023-01-09T13:19:38.603Z,38.25
2023-01-09T13:22:14.326Z,37.85
2023-01-09T13:25:29.158Z,38.17
2023-01-09T13:28:07.903Z,37.22
2023-01-09T13:31:09.912Z,36.44
2023-01-09T13:33:47.647Z,36.91
2023-01-09T13:36:29.258Z,37.58
2023-01-09T13:39:01.575Z,38.04
2023-01-09T13:41:51.989Z,38.49
2023-01-09T13:44:31.005Z,39.25
2023-01-09T13:47:04.568Z,39.28
2023-01-09T13:49:54.786Z,39.15
2023-01-09T13:52:39.727Z,38.65
2023-01-09T13:55:16.284Z,39.02
2023-01-09T13:58:05.076Z,40.04
2023-01-09T14:00:38.450Z,39.94
2023-01-09T14:03:22.767Z,39.88
2023-01-09T14:05:53.360Z,40.38
2023-01-09T14:08:26.094Z,39.58
2023-01-09T14:11:02.397Z,39.16
2023-01-09T14:13:40.247Z,39.42
2023-01-09T14:16:17.941Z,39.03
2023-01-09T14:18:59.366Z,38.74
2023-01-09T14:21:46.565Z,39.30
2023-01-09T14:24:30.389Z,38.66
2023-01-09T14:27:03.394Z,37.99
2023-01-09T14:29:33.491Z,38.93
2023-01-09T14:32:26.322Z,39.87
2023-01-09T14:35:05.383Z,39.22
2023-01-09T14:37:38.866Z,38.01
2023-01-09T14:40:32.151Z,38.38
2023-01-09T14:43:13.696Z,39.66
2023-01-09T14:45:49.940Z,40.17
2023-01-09T14:48:20.846Z,40.82
2023-01-09T14:51:00.001Z,40.80
2023-01-09T14:53:36.033Z,39.46
2023-01-09T14:56:09.491Z,39.46
2023-01-09T14:58:40.501Z,39.79
2023-01-09T15:01:19.885Z,39.90
2023-01-09T15:04:00.361Z,39.27
2023-01-09T15:06:34.054Z,38.16
2023-01-09T15:09:47.573Z,38.29
2023-01-09T15:12:25.473Z,39.24
2023-01-09T15:15:00.251Z,39.71
2023-01-09T15:17:37.214Z,38.83
2023-01-09T15:20:09.635Z,38.36
2023-01-09T15:22:40.068Z,37.78
2023-01-09T15:25:27.482Z,37.71
2023-01-09T15:28:22.100Z,38.85
2023-01-09T15:31:13.800Z,38.97
2023-01-09T15:33:46.806Z,37.64
2023-01-09T15:36:24.475Z,37.47
2023-01-09T15:38:55.715Z,39.00
2023-01-09T15:41:47.794Z,39.59
2023-01-09T15:44:28.020Z,39.20
2023-01-09T15:47:01.487Z,39.13
2023-01-09T15:49:33.288Z,39.39
2023-01-09T15:52:04.880Z,39.35
2023-01-09T15:54:36.341Z,38.84
2023-01-09T15:57:28.701Z,39.48
2023-01-09T16:00:19.336Z,39.82
2023-01-09T16:03:08.452Z,39.57
2023-01-09T16:05:48.555Z,39.73
2023-01-09T16:08:31.598Z,40.60
2023-01-09T16:11:10.577Z,40.38
2023-01-09T16:13:47.013Z,39.42
2023-01-09T16:16:24.930Z,39.37
2023-01-09T16:18:57.405Z,38.78
2023-01-09T16:21:38.936Z,38.07
2023-01-09T16:24:18.896Z,37.61
2023-01-09T16:26:49.064Z,38.57
2023-01-09T16:29:39.959Z,38.62
2023-01-09T16:32:24.155Z,39.67
2023-01-09T16:34:56.590Z,39.03
2023-01-09T16:37:28.353Z,39.32
2023-01-09T16:40:09.937Z,40.26
2023-01-09T16:42:58.694Z,39.87
2023-01-09T16:45:34.463Z,40.20
2023-01-09T16:48:16.278Z,40.94
2023-01-09T16:50:46.651Z,40.34
2023-01-09T16:53:25.225Z,39.76
2023-01-09T16:55:56.145Z,38.93
2023-01-09T16:58:32.927Z,38.69
2023-01-09T17:01:03.468Z,38.44
2023-01-09T17:03:34.301Z,38.58
2023-01-09T17:06:07.119Z,38.64
2023-01-09T17:08:39.065Z,39.66
2023-01-09T17:11:24.657Z,38.08
2023-01-09T17:13:55.134Z,38.52
2023-01-09T17:16:25.863Z,38.75
2023-01-09T17:18:56.710Z,39.23
2023-01-09T17:21:32.279Z,38.40
2023-01-09T17:24:20.996Z,37.69
2023-01-09T17:27:11.687Z,38.10
2023-01-09T17:29:42.181Z,36.67
2023-01-09T17:32:17.800Z,37.57
2023-01-09T17:34:47.817Z,38.62
2023-01-09T17:37:19.653Z,37.04
2023-01-09T17:39:50.227Z,36.87
2023-01-09T17:42:20.648Z,36.61
2023-01-09T17:44:51.172Z,36.44
2023-01-09T17:47:21.385Z,36.61
2023-01-09T17:49:51.865Z,37.61
2023-01-09T17:52:23.221Z,36.81
2023-01-09T17:54:53.688Z,35.51
2023-01-09T17:57:24.240Z,34.92
2023-01-09T17:59:54.643Z,35.19
2023-01-09T18:02:25.268Z,35.06
2023-01-09T18:04:55.719Z,35.12
2023-01-09T18:07:27.048Z,35.19
2023-01-09T18:09:57.662Z,34.67
2023-01-09T18:12:28.423Z,34.44
2023-01-09T18:14:58.888Z,34.91
2023-01-09T18:18:05.733Z,35.48
2023-01-09T18:20:36.074Z,35.42
2023-01-09T18:23:06.151Z,35.40
2023-01-09T18:25:36.857Z,35.79
2023-01-09T18:28:07.223Z,35.35
2023-01-09T18:30:38.132Z,34.65
2023-01-09T18:33:55.884Z,34.58
2023-01-09T18:36:31.354Z,34.19
2023-01-09T18:39:04.110Z,33.77
2023-01-09T18:41:34.694Z,33.69
2023-01-09T18:44:05.096Z,33.67
2023-01-09T18:46:35.662Z,33.65
2023-01-09T18:49:06.955Z,33.72
2023-01-09T18:51:38.011Z,33.75
2023-01-09T18:54:12.921Z,33.78
2023-01-09T18:56:43.443Z,34.20
2023-01-09T18:59:13.897Z,34.53
2023-01-09T19:01:44.541Z,33.84
2023-01-09T19:04:14.909Z,33.99
2023-01-09T19:06:45.363Z,33.58
2023-01-09T19:09:15.909Z,33.13
2023-01-09T19:11:47.218Z,32.81
2023-01-09T19:14:58.585Z,33.23
2023-01-09T19:17:28.992Z,33.14
2023-01-09T19:19:59.358Z,33.34
2023-01-09T19:22:30.420Z,33.75
2023-01-09T19:25:00.882Z,33.83
2023-01-09T19:27:40.043Z,33.39
2023-01-09T19:30:11.696Z,32.54
2023-01-09T19:32:42.571Z,32.62
2023-01-09T19:35:12.987Z,32.23
2023-01-09T19:37:43.304Z,32.02
2023-01-09T19:40:14.022Z,32.13
2023-01-09T19:42:44.420Z,32.27
2023-01-09T19:45:15.007Z,32.17
2023-01-09T19:47:46.533Z,31.77
2023-01-09T19:50:18.908Z,32.28
2023-01-09T19:52:49.156Z,32.32
2023-01-09T19:55:19.439Z,32.43
2023-01-09T19:57:49.741Z,31.99
2023-01-09T20:00:20.304Z,31.93
2023-01-09T20:02:51.628Z,31.50
2023-01-09T20:05:21.986Z,31.89
2023-01-09T20:07:59.038Z,32.27
2023-01-09T20:10:29.255Z,32.11
2023-01-09T20:12:59.724Z,31.27
2023-01-09T20:15:29.940Z,31.19
2023-01-09T20:18:00.900Z,31.20
2023-01-09T20:20:31.097Z,31.43
2023-01-09T20:23:01.466Z,31.58
2023-01-09T20:25:31.851Z,31.55
2023-01-09T20:28:02.180Z,31.73
2023-01-09T20:30:32.308Z,31.77
2023-01-09T20:33:02.564Z,31.53
2023-01-09T20:35:33.408Z,31.50
2023-01-09T20:38:04.864Z,30.63
2023-01-09T20:40:37.577Z,31.05
2023-01-09T20:43:09.704Z,31.12
2023-01-09T20:45:41.285Z,31.32
2023-01-09T20:48:12.321Z,31.10
2023-01-09T20:50:43.108Z,30.94
2023-01-09T20:53:13.518Z,30.79
2023-01-09T20:55:43.720Z,30.52
2023-01-09T20:58:14.193Z,30.25
2023-01-09T21:00:44.554Z,30.35
2023-01-09T21:03:17.797Z,30.56
2023-01-09T21:05:48.126Z,30.19
2023-01-09T21:08:19.119Z,30.28
2023-01-09T21:10:49.454Z,30.16
2023-01-09T21:13:19.891Z,30.14
2023-01-09T21:15:50.231Z,29.74
2023-01-09T21:18:20.732Z,29.27
2023-01-09T21:20:51.254Z,29.35
2023-01-09T21:23:24.652Z,29.13
2023-01-09T21:25:54.956Z,29.08
2023-01-09T21:28:26.374Z,28.92
2023-01-09T21:30:56.775Z,29.03
2023-01-09T21:33:27.216Z,28.80
2023-01-09T21:35:59.818Z,28.72
2023-01-09T21:38:30.201Z,28.60
2023-01-09T21:41:20.264Z,28.73
2023-01-09T21:44:09.180Z,28.49
2023-01-09T21:46:57.000Z,28.50
2023-01-09T21:49:30.815Z,28.36
2023-01-09T21:52:01.117Z,28.20
2023-01-09T21:54:32.450Z,28.06
2023-01-09T21:57:04.446Z,28.14
2023-01-09T21:59:35.100Z,28.17
2023-01-09T22:02:05.569Z,28.22
2023-01-09T22:04:36.305Z,27.89
2023-01-09T22:07:06.695Z,27.92
2023-01-09T22:09:38.618Z,27.79
2023-01-09T22:12:10.352Z,27.56
2023-01-09T22:14:41.252Z,27.54
2023-01-09T22:17:12.437Z,27.31
2023-01-09T22:19:42.832Z,27.02
2023-01-09T22:22:13.015Z,26.97
2023-01-09T22:24:43.569Z,26.97
2023-01-09T22:27:13.788Z,27.05
2023-01-09T22:29:44.134Z,26.88
2023-01-09T22:32:14.554Z,26.81
2023-01-09T22:34:44.960Z,26.57
2023-01-09T22:37:15.363Z,26.61
2023-01-09T22:39:45.730Z,26.53
2023-01-09T22:42:18.128Z,26.38
2023-01-09T22:44:48.621Z,26.11
2023-01-09T22:47:18.996Z,26.19
2023-01-09T22:49:53.476Z,26.04
2023-01-09T22:52:24.984Z,26.07
2023-01-09T22:54:55.372Z,26.02
2023-01-09T22:57:25.592Z,25.85
2023-01-09T22:59:55.924Z,25.90
2023-01-09T23:02:26.508Z,25.85
2023-01-09T23:04:59.483Z,25.73
2023-01-09T23:07:30.053Z,25.74
2023-01-09T23:10:03.061Z,25.69
2023-01-09T23:12:34.197Z,25.60
2023-01-09T23:15:04.603Z,25.63
2023-01-09T23:17:35.008Z,25.63
2023-01-09T23:20:05.809Z,25.55
2023-01-09T23:22:36.027Z,25.44
2023-01-09T23:25:06.800Z,25.34
2023-01-09T23:27:37.142Z,25.17
2023-01-09T23:30:08.159Z,25.10
2023-01-09T23:32:41.456Z,24.97
2023-01-09T23:35:12.149Z,24.99
2023-01-09T23:37:42.476Z,24.95
2023-01-09T23:40:13.646Z,25.01
2023-01-09T23:43:02.126Z,24.90
2023-01-09T23:45:32.845Z,24.93
2023-01-09T23:48:03.252Z,24.92
2023-01-09T23:50:34.224Z,25.12
2023-01-09T23:53:04.890Z,25.14
2023-01-09T23:55:38.280Z,25.02
2023-01-09T23:58:08.769Z,24.70
